RYR6QZ LIPY-EPKK
Flight info
| Callsign | RYR6QZ |
|---|---|
| Flight time | 1h 28m |
| Altitude | 19000 |
| Route | KEGED M730 TORPO/N0448F390 DCT KOPRY DCT XOMBA DCT MOCON M985 MEBAN |
| Aircraft | B738/M-SADE3FGIJ1LRWY/SB1 |
Departure
| Time | 2026-04-22 20:35 |
|---|---|
| Airport | Marche Airport (LIPY) |
Arrival
| Time | 2026-04-22 22:04 |
|---|---|
| Airport | Kraków John Paul II International Airport (EPKK) |
| Time | Latitude | Longitude | Altitude | Speed | Heading |
|---|---|---|---|---|---|
| 2026-04-22 20:23 | 43.60740 | 13.35451 | 55 ft | 0 kts | 166° |
| 2026-04-22 20:28 | 43.60734 | 13.35447 | 55 ft | 2 kts | 214° |
| 2026-04-22 20:28 | 43.60754 | 13.35413 | 51 ft | 8 kts | 317° |
| 2026-04-22 20:28 | 43.60738 | 13.35325 | 55 ft | 12 kts | 225° |
| 2026-04-22 20:29 | 43.60707 | 13.35237 | 55 ft | 5 kts | 292° |
| 2026-04-22 20:29 | 43.60709 | 13.35233 | 55 ft | 0 kts | 306° |
| 2026-04-22 20:30 | 43.60713 | 13.35227 | 55 ft | 2 kts | 306° |
| 2026-04-22 20:31 | 43.60730 | 13.35202 | 55 ft | 0 kts | 315° |
| 2026-04-22 20:31 | 43.60731 | 13.35200 | 37 ft | 0 kts | 316° |
| 2026-04-22 20:31 | 43.60733 | 13.35197 | 41 ft | 0 kts | 316° |
| 2026-04-22 20:31 | 43.60734 | 13.35195 | 39 ft | 0 kts | 316° |
| 2026-04-22 20:32 | 43.60741 | 13.35186 | 32 ft | 6 kts | 316° |
| 2026-04-22 20:32 | 43.60788 | 13.35118 | 55 ft | 12 kts | 314° |
| 2026-04-22 20:32 | 43.60839 | 13.35141 | 54 ft | 0 kts | 46° |
| 2026-04-22 20:34 | 43.60840 | 13.35142 | 54 ft | 1 kts | 46° |
| 2026-04-22 20:34 | 43.60923 | 13.35257 | 56 ft | 47 kts | 45° |
| 2026-04-22 20:34 | 43.61319 | 13.35800 | 54 ft | 111 kts | 45° |
| 2026-04-22 20:35 | 43.62223 | 13.37028 | 354 ft | 147 kts | 43° |
| 2026-04-22 20:35 | 43.62732 | 13.37727 | 683 ft | 157 kts | 44° |
| 2026-04-22 20:35 | 43.63481 | 13.38748 | 1552 ft | 143 kts | 43° |
| 2026-04-22 20:35 | 43.64203 | 13.39702 | 2026 ft | 156 kts | 43° |
| 2026-04-22 20:36 | 43.65042 | 13.40855 | 2320 ft | 177 kts | 44° |
| 2026-04-22 20:36 | 43.65961 | 13.42110 | 2729 ft | 190 kts | 44° |
| 2026-04-22 20:36 | 43.66936 | 13.43422 | 3147 ft | 196 kts | 44° |
| 2026-04-22 20:36 | 43.67925 | 13.44780 | 3571 ft | 207 kts | 45° |
| 2026-04-22 20:37 | 43.68955 | 13.46236 | 4052 ft | 214 kts | 45° |
| 2026-04-22 20:37 | 43.69990 | 13.47688 | 4720 ft | 215 kts | 45° |
| 2026-04-22 20:37 | 43.70918 | 13.49305 | 5363 ft | 217 kts | 64° |
| 2026-04-22 20:37 | 43.71230 | 13.51345 | 6043 ft | 221 kts | 87° |
| 2026-04-22 20:38 | 43.70882 | 13.53452 | 6673 ft | 231 kts | 110° |
| 2026-04-22 20:38 | 43.69906 | 13.55239 | 7255 ft | 242 kts | 132° |
| 2026-04-22 20:38 | 43.68614 | 13.56781 | 7864 ft | 247 kts | 134° |
| 2026-04-22 20:38 | 43.67281 | 13.58336 | 8484 ft | 252 kts | 135° |
| 2026-04-22 20:39 | 43.65947 | 13.59882 | 9121 ft | 255 kts | 135° |
| 2026-04-22 20:39 | 43.64570 | 13.61479 | 9777 ft | 259 kts | 135° |
| 2026-04-22 20:39 | 43.63176 | 13.63096 | 10406 ft | 263 kts | 135° |
| 2026-04-22 20:39 | 43.61757 | 13.64741 | 11010 ft | 267 kts | 135° |
| 2026-04-22 20:40 | 43.60341 | 13.66382 | 11617 ft | 271 kts | 136° |
| 2026-04-22 20:40 | 43.58952 | 13.68159 | 12226 ft | 272 kts | 122° |
| 2026-04-22 20:40 | 43.58215 | 13.70521 | 12653 ft | 273 kts | 95° |
| 2026-04-22 20:40 | 43.58099 | 13.73217 | 12851 ft | 291 kts | 86° |
| 2026-04-22 20:41 | 43.58068 | 13.76077 | 13022 ft | 313 kts | 87° |
| 2026-04-22 20:41 | 43.58014 | 13.79191 | 13200 ft | 334 kts | 88° |
| 2026-04-22 20:41 | 43.57941 | 13.82481 | 13533 ft | 349 kts | 88° |
| 2026-04-22 20:41 | 43.57855 | 13.85856 | 14120 ft | 355 kts | 88° |
| 2026-04-22 20:42 | 43.57763 | 13.89271 | 14783 ft | 357 kts | 88° |
| 2026-04-22 20:42 | 43.57670 | 13.92667 | 15450 ft | 360 kts | 88° |
| 2026-04-22 20:42 | 43.57575 | 13.96138 | 16107 ft | 363 kts | 88° |
| 2026-04-22 20:42 | 43.57479 | 13.99644 | 16738 ft | 367 kts | 88° |
| 2026-04-22 20:43 | 43.57381 | 14.03200 | 17375 ft | 371 kts | 88° |
| 2026-04-22 20:43 | 43.57284 | 14.06738 | 18012 ft | 374 kts | 88° |
| 2026-04-22 20:43 | 43.57182 | 14.10358 | 18624 ft | 378 kts | 88° |
| 2026-04-22 20:43 | 43.57080 | 14.14005 | 19114 ft | 383 kts | 87° |
| 2026-04-22 20:44 | 43.56990 | 14.17713 | 19581 ft | 388 kts | 87° |
| 2026-04-22 20:44 | 43.56907 | 14.21414 | 20072 ft | 393 kts | 87° |
| 2026-04-22 20:44 | 43.56822 | 14.25203 | 20568 ft | 397 kts | 87° |
| 2026-04-22 20:44 | 43.56733 | 14.29038 | 21041 ft | 402 kts | 87° |
| 2026-04-22 20:45 | 43.56640 | 14.32913 | 21519 ft | 406 kts | 87° |
| 2026-04-22 20:45 | 43.56564 | 14.36792 | 21978 ft | 408 kts | 83° |
| 2026-04-22 20:45 | 43.57085 | 14.40580 | 22371 ft | 399 kts | 61° |
| 2026-04-22 20:45 | 43.58502 | 14.43803 | 22884 ft | 389 kts | 45° |
| 2026-04-22 20:46 | 43.62683 | 14.48329 | 23831 ft | 383 kts | 28° |
| 2026-04-22 20:46 | 43.64922 | 14.50302 | 24181 ft | 386 kts | 27° |
| 2026-04-22 20:46 | 43.67207 | 14.52308 | 24536 ft | 390 kts | 27° |
| 2026-04-22 20:47 | 43.69507 | 14.54338 | 24898 ft | 393 kts | 27° |
| 2026-04-22 20:47 | 43.71791 | 14.56368 | 25245 ft | 396 kts | 27° |
| 2026-04-22 20:47 | 43.74117 | 14.58447 | 25590 ft | 399 kts | 27° |
| 2026-04-22 20:47 | 43.76454 | 14.60547 | 25934 ft | 402 kts | 27° |
| 2026-04-22 20:48 | 43.78812 | 14.62674 | 26275 ft | 405 kts | 27° |
| 2026-04-22 20:48 | 43.81189 | 14.64822 | 26599 ft | 407 kts | 27° |
| 2026-04-22 20:48 | 43.83539 | 14.66950 | 26928 ft | 410 kts | 27° |
| 2026-04-22 20:48 | 43.85936 | 14.69124 | 27245 ft | 413 kts | 27° |
| 2026-04-22 20:49 | 43.88350 | 14.71315 | 27563 ft | 415 kts | 27° |
| 2026-04-22 20:49 | 43.90777 | 14.73521 | 27882 ft | 417 kts | 27° |
| 2026-04-22 20:49 | 43.93215 | 14.75739 | 28192 ft | 419 kts | 27° |
| 2026-04-22 20:49 | 43.95639 | 14.77945 | 28500 ft | 421 kts | 27° |
| 2026-04-22 20:50 | 43.98097 | 14.80185 | 28802 ft | 423 kts | 27° |
| 2026-04-22 20:50 | 44.00579 | 14.82449 | 29086 ft | 425 kts | 27° |
| 2026-04-22 20:50 | 44.03035 | 14.84691 | 29370 ft | 427 kts | 27° |
| 2026-04-22 20:50 | 44.05528 | 14.86970 | 29651 ft | 429 kts | 27° |
| 2026-04-22 20:51 | 44.08028 | 14.89257 | 29915 ft | 431 kts | 27° |
| 2026-04-22 20:51 | 44.10550 | 14.91567 | 30162 ft | 433 kts | 27° |
| 2026-04-22 20:51 | 44.13074 | 14.93880 | 30381 ft | 435 kts | 27° |
| 2026-04-22 20:51 | 44.15580 | 14.96181 | 30573 ft | 436 kts | 28° |
| 2026-04-22 20:52 | 44.18124 | 14.98518 | 30775 ft | 438 kts | 28° |
| 2026-04-22 20:52 | 44.20672 | 15.00862 | 30991 ft | 439 kts | 28° |
| 2026-04-22 20:52 | 44.23226 | 15.03215 | 31262 ft | 438 kts | 28° |
| 2026-04-22 20:52 | 44.25765 | 15.05557 | 31536 ft | 438 kts | 28° |
| 2026-04-22 20:53 | 44.28305 | 15.07901 | 31769 ft | 438 kts | 28° |
| 2026-04-22 20:53 | 44.30851 | 15.10252 | 31992 ft | 438 kts | 28° |
| 2026-04-22 20:53 | 44.33399 | 15.12608 | 32233 ft | 438 kts | 28° |
| 2026-04-22 20:53 | 44.35945 | 15.14964 | 32476 ft | 438 kts | 28° |
| 2026-04-22 20:54 | 44.38486 | 15.17318 | 32709 ft | 439 kts | 28° |
| 2026-04-22 20:54 | 44.40999 | 15.19649 | 32933 ft | 439 kts | 28° |
| 2026-04-22 20:54 | 44.43547 | 15.22015 | 33157 ft | 439 kts | 28° |
| 2026-04-22 20:54 | 44.46090 | 15.24378 | 33359 ft | 439 kts | 28° |
| 2026-04-22 20:55 | 44.48636 | 15.26747 | 33590 ft | 439 kts | 29° |
| 2026-04-22 20:55 | 44.51187 | 15.29122 | 33835 ft | 438 kts | 29° |
| 2026-04-22 20:55 | 44.53730 | 15.31494 | 34056 ft | 439 kts | 29° |
| 2026-04-22 20:55 | 44.56273 | 15.33867 | 34261 ft | 438 kts | 29° |
| 2026-04-22 20:56 | 44.58812 | 15.36240 | 34459 ft | 438 kts | 29° |
| 2026-04-22 20:56 | 44.61347 | 15.38612 | 34664 ft | 437 kts | 29° |
| 2026-04-22 20:56 | 44.63844 | 15.40951 | 34832 ft | 437 kts | 29° |
| 2026-04-22 20:56 | 44.66374 | 15.43322 | 34993 ft | 437 kts | 29° |
| 2026-04-22 20:57 | 44.68902 | 15.45693 | 35176 ft | 437 kts | 30° |
| 2026-04-22 20:57 | 44.71432 | 15.48070 | 35344 ft | 436 kts | 30° |
| 2026-04-22 20:57 | 44.73958 | 15.50445 | 35508 ft | 436 kts | 30° |
| 2026-04-22 20:57 | 44.76483 | 15.52822 | 35666 ft | 436 kts | 30° |
| 2026-04-22 20:58 | 44.79007 | 15.55200 | 35837 ft | 436 kts | 30° |
| 2026-04-22 20:58 | 44.81530 | 15.57580 | 36011 ft | 435 kts | 30° |
| 2026-04-22 20:58 | 44.84020 | 15.59932 | 36168 ft | 435 kts | 30° |
| 2026-04-22 20:58 | 44.86543 | 15.62317 | 36321 ft | 435 kts | 30° |
| 2026-04-22 20:59 | 44.89052 | 15.64691 | 36487 ft | 434 kts | 30° |
| 2026-04-22 20:59 | 44.91561 | 15.67068 | 36635 ft | 434 kts | 30° |
| 2026-04-22 20:59 | 44.94070 | 15.69448 | 36769 ft | 434 kts | 30° |
| 2026-04-22 20:59 | 44.96544 | 15.71796 | 36911 ft | 434 kts | 30° |
| 2026-04-22 21:00 | 44.99049 | 15.74178 | 37059 ft | 433 kts | 30° |
| 2026-04-22 21:00 | 45.01553 | 15.76560 | 37197 ft | 433 kts | 30° |
| 2026-04-22 21:00 | 45.04063 | 15.78951 | 37319 ft | 433 kts | 30° |
| 2026-04-22 21:00 | 45.06564 | 15.81335 | 37441 ft | 433 kts | 31° |
| 2026-04-22 21:01 | 45.09032 | 15.83691 | 37554 ft | 433 kts | 31° |
| 2026-04-22 21:01 | 45.11528 | 15.86076 | 37670 ft | 432 kts | 31° |
| 2026-04-22 21:01 | 45.14019 | 15.88459 | 37787 ft | 432 kts | 31° |
| 2026-04-22 21:01 | 45.16514 | 15.90848 | 37890 ft | 432 kts | 31° |
| 2026-04-22 21:02 | 45.19011 | 15.93241 | 37992 ft | 432 kts | 31° |
| 2026-04-22 21:02 | 45.21506 | 15.95635 | 38104 ft | 432 kts | 31° |
| 2026-04-22 21:02 | 45.23963 | 15.97996 | 38215 ft | 432 kts | 31° |
| 2026-04-22 21:02 | 45.26450 | 16.00387 | 38336 ft | 431 kts | 31° |
| 2026-04-22 21:03 | 45.28942 | 16.02787 | 38450 ft | 431 kts | 31° |
| 2026-04-22 21:03 | 45.31425 | 16.05180 | 38546 ft | 431 kts | 31° |
| 2026-04-22 21:03 | 45.36366 | 16.09950 | 38738 ft | 430 kts | 31° |
| 2026-04-22 21:04 | 45.41332 | 16.14755 | 38892 ft | 430 kts | 31° |
| 2026-04-22 21:04 | 45.46250 | 16.19522 | 39022 ft | 430 kts | 31° |
| 2026-04-22 21:05 | 45.51183 | 16.24316 | 39192 ft | 427 kts | 32° |
| 2026-04-22 21:05 | 45.56105 | 16.29108 | 39214 ft | 428 kts | 32° |
| 2026-04-22 21:06 | 45.60995 | 16.33879 | 39233 ft | 428 kts | 32° |
| 2026-04-22 21:06 | 45.65933 | 16.38708 | 39235 ft | 429 kts | 32° |
| 2026-04-22 21:07 | 45.70833 | 16.43510 | 39232 ft | 429 kts | 32° |
| 2026-04-22 21:07 | 45.75749 | 16.48338 | 39227 ft | 430 kts | 32° |
| 2026-04-22 21:08 | 45.80688 | 16.53200 | 39215 ft | 430 kts | 32° |
| 2026-04-22 21:08 | 45.85631 | 16.58076 | 39210 ft | 430 kts | 32° |
| 2026-04-22 21:09 | 45.90531 | 16.62921 | 39208 ft | 430 kts | 32° |
| 2026-04-22 21:09 | 45.95464 | 16.67808 | 39206 ft | 429 kts | 32° |
| 2026-04-22 21:10 | 46.00360 | 16.72670 | 39209 ft | 428 kts | 32° |
| 2026-04-22 21:10 | 46.05242 | 16.77528 | 39203 ft | 428 kts | 32° |
| 2026-04-22 21:11 | 46.10145 | 16.82419 | 39204 ft | 428 kts | 32° |
| 2026-04-22 21:11 | 46.15043 | 16.87316 | 39201 ft | 427 kts | 33° |
| 2026-04-22 21:12 | 46.19900 | 16.92181 | 39200 ft | 427 kts | 33° |
| 2026-04-22 21:12 | 46.24825 | 16.96981 | 39191 ft | 425 kts | 27° |
| 2026-04-22 21:13 | 46.30123 | 17.00782 | 39198 ft | 424 kts | 24° |
| 2026-04-22 21:13 | 46.35427 | 17.04412 | 39201 ft | 424 kts | 24° |
| 2026-04-22 21:14 | 46.40754 | 17.08110 | 39205 ft | 424 kts | 24° |
| 2026-04-22 21:14 | 46.46051 | 17.11839 | 39205 ft | 424 kts | 25° |
| 2026-04-22 21:15 | 46.51369 | 17.15608 | 39209 ft | 424 kts | 25° |
| 2026-04-22 21:15 | 46.56683 | 17.19386 | 39202 ft | 424 kts | 25° |
| 2026-04-22 21:16 | 46.61966 | 17.23149 | 39211 ft | 425 kts | 25° |
| 2026-04-22 21:16 | 46.67285 | 17.26945 | 39217 ft | 425 kts | 25° |
| 2026-04-22 21:17 | 46.72563 | 17.30720 | 39209 ft | 425 kts | 25° |
| 2026-04-22 21:17 | 46.77875 | 17.34528 | 39204 ft | 425 kts | 25° |
| 2026-04-22 21:18 | 46.83179 | 17.38338 | 39205 ft | 424 kts | 25° |
| 2026-04-22 21:18 | 46.88455 | 17.42137 | 39193 ft | 424 kts | 26° |
| 2026-04-22 21:19 | 46.93767 | 17.45969 | 39190 ft | 424 kts | 26° |
| 2026-04-22 21:19 | 46.99026 | 17.49772 | 39199 ft | 424 kts | 26° |
| 2026-04-22 21:20 | 47.04333 | 17.53619 | 39190 ft | 424 kts | 26° |
| 2026-04-22 21:20 | 47.09590 | 17.57438 | 39190 ft | 424 kts | 26° |
| 2026-04-22 21:21 | 47.14883 | 17.61291 | 39180 ft | 423 kts | 26° |
| 2026-04-22 21:21 | 47.20131 | 17.65120 | 39193 ft | 423 kts | 26° |
| 2026-04-22 21:22 | 47.25405 | 17.68977 | 39183 ft | 422 kts | 26° |
| 2026-04-22 21:22 | 47.30675 | 17.72839 | 39187 ft | 422 kts | 26° |
| 2026-04-22 21:23 | 47.35051 | 17.76053 | 39191 ft | 422 kts | 26° |
| 2026-04-22 21:23 | 47.41168 | 17.80555 | 39190 ft | 421 kts | 26° |
| 2026-04-22 21:24 | 47.45537 | 17.83779 | 39183 ft | 421 kts | 27° |
| 2026-04-22 21:24 | 47.50796 | 17.87666 | 39190 ft | 421 kts | 27° |
| 2026-04-22 21:25 | 47.56007 | 17.91527 | 39187 ft | 421 kts | 27° |
| 2026-04-22 21:25 | 47.61249 | 17.95420 | 39180 ft | 421 kts | 27° |
| 2026-04-22 21:26 | 47.66463 | 17.99301 | 39180 ft | 421 kts | 27° |
| 2026-04-22 21:26 | 47.71697 | 18.03205 | 39186 ft | 421 kts | 27° |
| 2026-04-22 21:27 | 47.76936 | 18.07138 | 39182 ft | 421 kts | 28° |
| 2026-04-22 21:27 | 47.82088 | 18.11237 | 39186 ft | 421 kts | 29° |
| 2026-04-22 21:28 | 47.87241 | 18.15415 | 39179 ft | 422 kts | 29° |
| 2026-04-22 21:28 | 47.92408 | 18.19598 | 39175 ft | 422 kts | 29° |
| 2026-04-22 21:29 | 47.97543 | 18.23747 | 39174 ft | 422 kts | 29° |
| 2026-04-22 21:29 | 48.02720 | 18.27933 | 39179 ft | 422 kts | 29° |
| 2026-04-22 21:30 | 48.07864 | 18.32101 | 39173 ft | 422 kts | 29° |
| 2026-04-22 21:30 | 48.13041 | 18.36304 | 39175 ft | 422 kts | 29° |
| 2026-04-22 21:31 | 48.18183 | 18.40490 | 38957 ft | 425 kts | 30° |
| 2026-04-22 21:31 | 48.20793 | 18.42618 | 38716 ft | 424 kts | 30° |
| 2026-04-22 21:31 | 48.23379 | 18.44728 | 38431 ft | 419 kts | 30° |
| 2026-04-22 21:32 | 48.25894 | 18.46783 | 38149 ft | 413 kts | 30° |
| 2026-04-22 21:32 | 48.28407 | 18.48837 | 37881 ft | 409 kts | 30° |
| 2026-04-22 21:32 | 48.30901 | 18.50880 | 37607 ft | 406 kts | 31° |
| 2026-04-22 21:32 | 48.33376 | 18.52909 | 37345 ft | 403 kts | 31° |
| 2026-04-22 21:33 | 48.35829 | 18.54923 | 37079 ft | 399 kts | 31° |
| 2026-04-22 21:33 | 48.38266 | 18.56925 | 36818 ft | 396 kts | 31° |
| 2026-04-22 21:33 | 48.40675 | 18.58908 | 36569 ft | 393 kts | 32° |
| 2026-04-22 21:33 | 48.43038 | 18.60854 | 36318 ft | 390 kts | 32° |
| 2026-04-22 21:34 | 48.45410 | 18.62809 | 36067 ft | 386 kts | 32° |
| 2026-04-22 21:34 | 48.47767 | 18.64755 | 35803 ft | 383 kts | 32° |
| 2026-04-22 21:34 | 48.50069 | 18.66656 | 35571 ft | 379 kts | 33° |
| 2026-04-22 21:34 | 48.52374 | 18.68562 | 35318 ft | 375 kts | 33° |
| 2026-04-22 21:35 | 48.54650 | 18.70446 | 35082 ft | 371 kts | 33° |
| 2026-04-22 21:35 | 48.56907 | 18.72316 | 34830 ft | 367 kts | 33° |
| 2026-04-22 21:35 | 48.59139 | 18.74168 | 34594 ft | 363 kts | 34° |
| 2026-04-22 21:35 | 48.61306 | 18.75966 | 34304 ft | 355 kts | 34° |
| 2026-04-22 21:36 | 48.63460 | 18.77755 | 33901 ft | 349 kts | 34° |
| 2026-04-22 21:36 | 48.65581 | 18.79520 | 33528 ft | 343 kts | 34° |
| 2026-04-22 21:36 | 48.67652 | 18.81246 | 33136 ft | 337 kts | 34° |
| 2026-04-22 21:36 | 48.69662 | 18.82923 | 32800 ft | 330 kts | 34° |
| 2026-04-22 21:37 | 48.71668 | 18.84597 | 32424 ft | 325 kts | 34° |
| 2026-04-22 21:37 | 48.73641 | 18.86246 | 32069 ft | 320 kts | 34° |
| 2026-04-22 21:37 | 48.75560 | 18.87852 | 31715 ft | 315 kts | 34° |
| 2026-04-22 21:37 | 48.77469 | 18.89451 | 31380 ft | 311 kts | 34° |
| 2026-04-22 21:38 | 48.79368 | 18.91045 | 31051 ft | 315 kts | 34° |
| 2026-04-22 21:38 | 48.81328 | 18.92696 | 30725 ft | 329 kts | 33° |
| 2026-04-22 21:38 | 48.83371 | 18.94420 | 30367 ft | 338 kts | 33° |
| 2026-04-22 21:38 | 48.85426 | 18.96145 | 29914 ft | 334 kts | 33° |
| 2026-04-22 21:39 | 48.87419 | 18.97815 | 29506 ft | 329 kts | 33° |
| 2026-04-22 21:39 | 48.89408 | 18.99484 | 29121 ft | 322 kts | 33° |
| 2026-04-22 21:39 | 48.91360 | 19.01124 | 28765 ft | 316 kts | 33° |
| 2026-04-22 21:39 | 48.93269 | 19.02731 | 28390 ft | 310 kts | 33° |
| 2026-04-22 21:40 | 48.95142 | 19.04309 | 28032 ft | 305 kts | 33° |
| 2026-04-22 21:40 | 48.96963 | 19.05847 | 27683 ft | 300 kts | 33° |
| 2026-04-22 21:40 | 48.98774 | 19.07380 | 27328 ft | 297 kts | 33° |
| 2026-04-22 21:40 | 49.00572 | 19.08902 | 26994 ft | 293 kts | 33° |
| 2026-04-22 21:41 | 49.02360 | 19.10418 | 26661 ft | 295 kts | 32° |
| 2026-04-22 21:41 | 49.04190 | 19.11972 | 26339 ft | 307 kts | 32° |
| 2026-04-22 21:41 | 49.06089 | 19.13586 | 25966 ft | 313 kts | 32° |
| 2026-04-22 21:41 | 49.07990 | 19.15198 | 25589 ft | 310 kts | 32° |
| 2026-04-22 21:42 | 49.09840 | 19.16769 | 25219 ft | 306 kts | 32° |
| 2026-04-22 21:42 | 49.11690 | 19.18339 | 24882 ft | 301 kts | 32° |
| 2026-04-22 21:42 | 49.13508 | 19.19884 | 24525 ft | 297 kts | 32° |
| 2026-04-22 21:42 | 49.15274 | 19.21485 | 24188 ft | 292 kts | 37° |
| 2026-04-22 21:43 | 49.16833 | 19.23448 | 23784 ft | 289 kts | 43° |
| 2026-04-22 21:43 | 49.18298 | 19.25562 | 23019 ft | 296 kts | 44° |
| 2026-04-22 21:43 | 49.19802 | 19.27743 | 22459 ft | 297 kts | 44° |
| 2026-04-22 21:43 | 49.21307 | 19.29909 | 22017 ft | 295 kts | 43° |
| 2026-04-22 21:44 | 49.22796 | 19.32044 | 21581 ft | 293 kts | 43° |
| 2026-04-22 21:44 | 49.24270 | 19.34153 | 21134 ft | 291 kts | 43° |
| 2026-04-22 21:44 | 49.25750 | 19.36271 | 20658 ft | 290 kts | 43° |
| 2026-04-22 21:44 | 49.27227 | 19.38385 | 20236 ft | 289 kts | 43° |
| 2026-04-22 21:45 | 49.28694 | 19.40487 | 19822 ft | 287 kts | 43° |
| 2026-04-22 21:45 | 49.30136 | 19.42555 | 19402 ft | 287 kts | 43° |
| 2026-04-22 21:45 | 49.31590 | 19.44642 | 18993 ft | 286 kts | 43° |
| 2026-04-22 21:45 | 49.33040 | 19.46724 | 18586 ft | 284 kts | 43° |
| 2026-04-22 21:46 | 49.34484 | 19.48801 | 18147 ft | 283 kts | 43° |
| 2026-04-22 21:46 | 49.35904 | 19.50844 | 17719 ft | 282 kts | 43° |
| 2026-04-22 21:46 | 49.37327 | 19.52893 | 17355 ft | 278 kts | 43° |
| 2026-04-22 21:46 | 49.38734 | 19.54923 | 17018 ft | 274 kts | 42° |
| 2026-04-22 21:47 | 49.40116 | 19.56916 | 16695 ft | 270 kts | 42° |
| 2026-04-22 21:47 | 49.41477 | 19.58880 | 16375 ft | 266 kts | 42° |
| 2026-04-22 21:47 | 49.42798 | 19.60789 | 16082 ft | 262 kts | 42° |
| 2026-04-22 21:47 | 49.44127 | 19.62710 | 15782 ft | 260 kts | 42° |
| 2026-04-22 21:48 | 49.45468 | 19.64595 | 15480 ft | 261 kts | 37° |
| 2026-04-22 21:48 | 49.47003 | 19.66049 | 15197 ft | 265 kts | 27° |
| 2026-04-22 21:48 | 49.48675 | 19.67381 | 14904 ft | 276 kts | 27° |
| 2026-04-22 21:48 | 49.50403 | 19.68743 | 14571 ft | 278 kts | 27° |
| 2026-04-22 21:49 | 49.52117 | 19.70100 | 14241 ft | 274 kts | 26° |
| 2026-04-22 21:49 | 49.53785 | 19.71428 | 13922 ft | 271 kts | 26° |
| 2026-04-22 21:49 | 49.55452 | 19.72762 | 13571 ft | 268 kts | 26° |
| 2026-04-22 21:49 | 49.57093 | 19.74081 | 13251 ft | 264 kts | 26° |
| 2026-04-22 21:50 | 49.58707 | 19.75382 | 12954 ft | 260 kts | 26° |
| 2026-04-22 21:50 | 49.60297 | 19.76667 | 12655 ft | 256 kts | 26° |
| 2026-04-22 21:50 | 49.61861 | 19.77934 | 12356 ft | 252 kts | 26° |
| 2026-04-22 21:50 | 49.63407 | 19.79187 | 12060 ft | 251 kts | 26° |
| 2026-04-22 21:51 | 49.64961 | 19.80447 | 11796 ft | 253 kts | 26° |
| 2026-04-22 21:51 | 49.66523 | 19.81716 | 11514 ft | 261 kts | 26° |
| 2026-04-22 21:51 | 49.68150 | 19.83038 | 11217 ft | 266 kts | 26° |
| 2026-04-22 21:52 | 49.71408 | 19.85691 | 10595 ft | 261 kts | 26° |
| 2026-04-22 21:52 | 49.73011 | 19.86999 | 10270 ft | 259 kts | 25° |
| 2026-04-22 21:52 | 49.74565 | 19.88269 | 10041 ft | 252 kts | 25° |
| 2026-04-22 21:52 | 49.76112 | 19.89534 | 9705 ft | 250 kts | 25° |
| 2026-04-22 21:53 | 49.77632 | 19.90777 | 9437 ft | 244 kts | 25° |
| 2026-04-22 21:53 | 49.79130 | 19.92002 | 9141 ft | 242 kts | 25° |
| 2026-04-22 21:53 | 49.80607 | 19.93211 | 8879 ft | 238 kts | 25° |
| 2026-04-22 21:53 | 49.82063 | 19.94404 | 8622 ft | 234 kts | 25° |
| 2026-04-22 21:54 | 49.83512 | 19.95590 | 8359 ft | 236 kts | 25° |
| 2026-04-22 21:54 | 49.84957 | 19.96773 | 8112 ft | 240 kts | 25° |
| 2026-04-22 21:54 | 49.86458 | 19.98004 | 7855 ft | 247 kts | 25° |
| 2026-04-22 21:54 | 49.87987 | 19.99259 | 7574 ft | 249 kts | 25° |
| 2026-04-22 21:55 | 49.89507 | 20.00510 | 7286 ft | 245 kts | 25° |
| 2026-04-22 21:55 | 49.91003 | 20.01742 | 7013 ft | 241 kts | 24° |
| 2026-04-22 21:55 | 49.92474 | 20.02954 | 6751 ft | 237 kts | 24° |
| 2026-04-22 21:55 | 49.93923 | 20.04149 | 6502 ft | 233 kts | 24° |
| 2026-04-22 21:56 | 49.95348 | 20.05323 | 6221 ft | 231 kts | 24° |
| 2026-04-22 21:56 | 49.96736 | 20.06468 | 5973 ft | 227 kts | 24° |
| 2026-04-22 21:56 | 49.98127 | 20.07616 | 5723 ft | 226 kts | 24° |
| 2026-04-22 21:56 | 49.99513 | 20.08760 | 5635 ft | 225 kts | 24° |
| 2026-04-22 21:57 | 50.00903 | 20.09907 | 5542 ft | 228 kts | 24° |
| 2026-04-22 21:57 | 50.02302 | 20.11064 | 5430 ft | 224 kts | 23° |
| 2026-04-22 21:57 | 50.03735 | 20.11701 | 5234 ft | 208 kts | 354° |
| 2026-04-22 21:57 | 50.05106 | 20.11405 | 5175 ft | 196 kts | 347° |
| 2026-04-22 21:58 | 50.06419 | 20.10979 | 5010 ft | 195 kts | 346° |
| 2026-04-22 21:58 | 50.07753 | 20.10534 | 4784 ft | 196 kts | 345° |
| 2026-04-22 21:58 | 50.09086 | 20.10091 | 4562 ft | 195 kts | 345° |
| 2026-04-22 21:58 | 50.10317 | 20.09414 | 4451 ft | 179 kts | 320° |
| 2026-04-22 21:59 | 50.10876 | 20.07768 | 4377 ft | 178 kts | 281° |
| 2026-04-22 21:59 | 50.10959 | 20.05841 | 4162 ft | 180 kts | 280° |
| 2026-04-22 21:59 | 50.11048 | 20.03925 | 3915 ft | 175 kts | 274° |
| 2026-04-22 21:59 | 50.10953 | 20.02071 | 3689 ft | 169 kts | 270° |
| 2026-04-22 22:00 | 50.10796 | 20.00299 | 3471 ft | 162 kts | 266° |
| 2026-04-22 22:00 | 50.10581 | 19.98607 | 3254 ft | 156 kts | 264° |
| 2026-04-22 22:00 | 50.10357 | 19.96972 | 3036 ft | 153 kts | 264° |
| 2026-04-22 22:00 | 50.10130 | 19.95354 | 2842 ft | 152 kts | 263° |
| 2026-04-22 22:01 | 50.09905 | 19.93747 | 2631 ft | 152 kts | 262° |
| 2026-04-22 22:01 | 50.09683 | 19.92169 | 2430 ft | 150 kts | 262° |
| 2026-04-22 22:01 | 50.09462 | 19.90588 | 2228 ft | 150 kts | 261° |
| 2026-04-22 22:01 | 50.09245 | 19.89045 | 2006 ft | 141 kts | 260° |
| 2026-04-22 22:02 | 50.09040 | 19.87579 | 1852 ft | 137 kts | 259° |
| 2026-04-22 22:02 | 50.08845 | 19.86179 | 1652 ft | 129 kts | 259° |
| 2026-04-22 22:02 | 50.08656 | 19.84833 | 1486 ft | 127 kts | 258° |
| 2026-04-22 22:02 | 50.08464 | 19.83465 | 1311 ft | 131 kts | 257° |
| 2026-04-22 22:03 | 50.08272 | 19.82067 | 1122 ft | 133 kts | 256° |
| 2026-04-22 22:03 | 50.08079 | 19.80665 | 940 ft | 132 kts | 257° |
| 2026-04-22 22:03 | 50.07883 | 19.79274 | 799 ft | 126 kts | 256° |
| 2026-04-22 22:03 | 50.07732 | 19.78188 | 788 ft | 72 kts | 258° |
| 2026-04-22 22:04 | 50.07652 | 19.77616 | 789 ft | 48 kts | 257° |
| 2026-04-22 22:04 | 50.07589 | 19.77162 | 794 ft | 30 kts | 258° |
| 2026-04-22 22:04 | 50.07535 | 19.76872 | 796 ft | 25 kts | 228° |
| 2026-04-22 22:04 | 50.07452 | 19.76860 | 792 ft | 13 kts | 167° |
| 2026-04-22 22:05 | 50.07353 | 19.76894 | 789 ft | 15 kts | 167° |
| 2026-04-22 22:05 | 50.07314 | 19.77011 | 789 ft | 14 kts | 79° |
| 2026-04-22 22:05 | 50.07335 | 19.77159 | 789 ft | 15 kts | 77° |
| 2026-04-22 22:05 | 50.07360 | 19.77330 | 789 ft | 18 kts | 77° |
| 2026-04-22 22:06 | 50.07389 | 19.77532 | 789 ft | 20 kts | 78° |
| 2026-04-22 22:06 | 50.07417 | 19.77746 | 789 ft | 21 kts | 77° |
| 2026-04-22 22:06 | 50.07452 | 19.77991 | 789 ft | 25 kts | 78° |
| 2026-04-22 22:06 | 50.07491 | 19.78276 | 789 ft | 28 kts | 78° |
| 2026-04-22 22:07 | 50.07532 | 19.78560 | 789 ft | 26 kts | 77° |
| 2026-04-22 22:07 | 50.07569 | 19.78826 | 789 ft | 24 kts | 78° |
| 2026-04-22 22:07 | 50.07603 | 19.79073 | 789 ft | 23 kts | 77° |
| 2026-04-22 22:07 | 50.07636 | 19.79308 | 789 ft | 22 kts | 78° |
| 2026-04-22 22:08 | 50.07667 | 19.79538 | 789 ft | 21 kts | 78° |
| 2026-04-22 22:08 | 50.07696 | 19.79745 | 789 ft | 14 kts | 77° |
| 2026-04-22 22:08 | 50.07678 | 19.79876 | 789 ft | 14 kts | 158° |
| 2026-04-22 22:08 | 50.07587 | 19.79908 | 789 ft | 13 kts | 168° |
| 2026-04-22 22:09 | 50.07515 | 19.79971 | 789 ft | 13 kts | 106° |
| 2026-04-22 22:09 | 50.07526 | 19.80103 | 789 ft | 12 kts | 92° |
| 2026-04-22 22:09 | 50.07491 | 19.80138 | 789 ft | 1 kts | 168° |
| 2026-04-22 22:09 | 50.07483 | 19.80141 | 789 ft | 1 kts | 169° |
| 2026-04-22 22:10 | 50.07482 | 19.80141 | 789 ft | 0 kts | 169° |